KHWD/HWD METAR and TAF weather

Enter ICAO airport designator
Station Type Date Time Source
KHWD METAR 2020/04/07 16:54 UTC NOAA

KHWD 071654Z 34003KT 10SM CLR 11/06 A3013 RMK AO2 SLP212 T01060056


Station Type Date Time Source
KHWD Decoded METAR 2020/04/07 16:54 UTC NOAA

HAYWARD AIR TERMINAL, CA, United States (KHWD) 37-40N 122-07W 21M
Apr 07, 2020 - 12:54 PM EDT / 2020.04.07 1654 UTC
Wind: from the NNW (340 degrees) at 3 MPH (3 KT):0
Visibility: 10 mile(s):0
Sky conditions: clear
Temperature: 51.1 F (10.6 C)
Dew Point: 42.1 F (5.6 C)
Relative Humidity: 71%
Pressure (altimeter): 30.13 in. Hg (1020 hPa)
ob: KHWD 071654Z 34003KT 10SM CLR 11/06 A3013 RMK AO2 SLP212 T01060056
cycle: 17

Station Type Date Time Source
KHWD TAF UTC NOAA

Error!

Example: see airport list